Time;durP1;ratioP1;P1;durP2;ratioP2;P2;SDS_P1;SDS_P2;PMS_P1;PMS_P2;Temp;Humidity;BMP_temperature;BMP_pressure;BME280_temperature;BME280_humidity;BME280_pressure;Samples;Min_cycle;Max_cycle;Signal;HPM_P1;HPM_P2
2022/03/03 00:00:49;;;;;;;0.00;0.00;;;;;22.70;100301.00;;;;4873981;29;20796;-77
2022/03/03 00:03:19;;;;;;;0.00;0.00;;;;;22.70;100292.00;;;;4874853;29;20655;-77
2022/03/03 00:05:51;;;;;;;0.00;0.00;;;;;22.50;100305.00;;;;4874438;29;20053;-78
2022/03/03 00:08:23;;;;;;;0.00;0.00;;;;;22.50;100312.00;;;;4874823;29;20056;-78
2022/03/03 00:10:57;;;;;;;0.00;0.00;;;;;22.40;100305.00;;;;4874800;29;20052;-79
2022/03/03 00:13:27;;;;;;;0.13;0.13;;;;;22.40;100311.00;;;;4869628;29;20038;-76
2022/03/03 00:15:56;;;;;;;0.08;0.08;;;;;22.30;100307.00;;;;4855816;29;20505;-78
2022/03/03 00:18:26;;;;;;;0.00;0.00;;;;;22.30;100338.00;;;;4855746;29;20076;-77
2022/03/03 00:20:55;;;;;;;0.00;0.00;;;;;22.30;100330.00;;;;4855538;29;20619;-76
2022/03/03 00:23:25;;;;;;;0.00;0.00;;;;;22.20;100326.00;;;;4855903;29;20064;-77
2022/03/03 00:25:54;;;;;;;0.00;0.00;;;;;22.20;100345.00;;;;4855077;29;20038;-77
2022/03/03 00:28:24;;;;;;;0.00;0.00;;;;;22.10;100332.00;;;;4861992;29;20049;-77
2022/03/03 00:30:53;;;;;;;0.00;0.00;;;;;22.10;100338.00;;;;4863449;29;20050;-78
2022/03/03 00:33:23;;;;;;;0.00;0.00;;;;;22.00;100338.00;;;;4845490;29;20833;-77
2022/03/03 00:35:53;;;;;;;0.00;0.00;;;;;22.00;100337.00;;;;4871705;29;20140;-78
2022/03/03 00:38:22;;;;;;;0.00;0.00;;;;;22.00;100348.00;;;;4873447;29;20082;-80
2022/03/03 00:40:52;;;;;;;0.00;0.00;;;;;21.90;100356.00;;;;4873654;29;20503;-79
2022/03/03 00:43:22;;;;;;;0.00;0.00;;;;;21.90;100338.00;;;;4873170;29;20037;-78
2022/03/03 00:45:51;;;;;;;0.00;0.00;;;;;21.80;100343.00;;;;4873260;29;20425;-79
2022/03/03 00:48:22;;;;;;;0.03;0.03;;;;;21.80;100342.00;;;;4873812;29;20132;-78
2022/03/03 00:50:51;;;;;;;0.00;0.00;;;;;21.80;100340.00;;;;4853165;29;20049;-78
2022/03/03 00:53:23;;;;;;;0.00;0.00;;;;;21.80;100346.00;;;;4872141;29;20528;-79
2022/03/03 00:55:53;;;;;;;0.00;0.00;;;;;21.70;100363.00;;;;4874205;29;20921;-78
2022/03/03 00:58:22;;;;;;;0.00;0.00;;;;;21.70;100337.00;;;;4873068;29;20060;-78
2022/03/03 01:00:51;;;;;;;0.00;0.00;;;;;21.60;100356.00;;;;4873482;29;20572;-79
2022/03/03 01:03:27;;;;;;;9.32;2.25;;;;;21.50;100356.00;;;;4872861;29;20053;-78
2022/03/03 01:05:57;;;;;;;0.00;0.00;;;;;21.60;100352.00;;;;4873776;29;20535;-79
2022/03/03 01:08:26;;;;;;;0.00;0.00;;;;;21.50;100354.00;;;;4873323;29;20505;-79
2022/03/03 01:10:56;;;;;;;0.00;0.00;;;;;21.40;100346.00;;;;4873506;29;20060;-79
2022/03/03 01:13:25;;;;;;;0.00;0.00;;;;;21.40;100361.00;;;;4872930;29;20065;-78
2022/03/03 01:15:55;;;;;;;0.00;0.00;;;;;21.40;100363.00;;;;4872667;29;20045;-79
2022/03/03 01:18:25;;;;;;;0.00;0.00;;;;;21.40;100342.00;;;;4873416;29;20421;-80
2022/03/03 01:20:55;;;;;;;0.00;0.00;;;;;21.40;100370.00;;;;4872956;29;20128;-79
2022/03/03 01:23:24;;;;;;;0.00;0.00;;;;;21.40;100364.00;;;;4872636;29;20508;-78
2022/03/03 01:25:54;;;;;;;0.15;0.00;;;;;21.40;100371.00;;;;4872264;29;20041;-78
2022/03/03 01:28:24;;;;;;;0.00;0.00;;;;;21.30;100361.00;;;;4872871;29;20100;-78
2022/03/03 01:30:53;;;;;;;0.00;0.00;;;;;21.30;100366.00;;;;4873346;29;20057;-79
2022/03/03 01:33:23;;;;;;;0.00;0.00;;;;;21.30;100357.00;;;;4872992;29;20128;-78
2022/03/03 01:35:52;;;;;;;0.00;0.00;;;;;21.30;100361.00;;;;4871576;29;20049;-79
2022/03/03 01:38:22;;;;;;;0.00;0.00;;;;;21.30;100362.00;;;;4869611;29;20053;-79
2022/03/03 01:40:51;;;;;;;0.00;0.00;;;;;21.30;100359.00;;;;4871188;29;20543;-79
2022/03/03 01:43:21;;;;;;;0.00;0.00;;;;;21.20;100368.00;;;;4872599;29;20492;-78
2022/03/03 01:45:51;;;;;;;0.00;0.00;;;;;21.20;100382.00;;;;4872663;29;20107;-77
2022/03/03 01:48:21;;;;;;;0.00;0.00;;;;;21.20;100387.00;;;;4872532;29;20128;-80
2022/03/03 01:50:52;;;;;;;0.00;0.00;;;;;21.20;100383.00;;;;4872511;29;20048;-78
2022/03/03 01:53:22;;;;;;;0.00;0.00;;;;;21.20;100356.00;;;;4872035;29;20053;-79
2022/03/03 01:55:53;;;;;;;0.00;0.00;;;;;21.20;100372.00;;;;4852669;29;20139;-81
2022/03/03 01:58:22;;;;;;;0.55;0.35;;;;;21.10;100364.00;;;;4871919;29;20052;-80
2022/03/03 02:00:52;;;;;;;0.25;0.25;;;;;21.20;100366.00;;;;4872633;29;20060;-81
2022/03/03 02:03:22;;;;;;;0.00;0.00;;;;;21.20;100354.00;;;;4872585;29;20049;-81
2022/03/03 02:05:51;;;;;;;0.00;0.00;;;;;21.10;100356.00;;;;4872921;29;20060;-79
2022/03/03 02:08:23;;;;;;;0.20;0.20;;;;;21.10;100356.00;;;;4872845;29;20041;-81
2022/03/03 02:10:54;;;;;;;0.00;0.00;;;;;21.00;100370.00;;;;4872844;29;20754;-79
2022/03/03 02:13:24;;;;;;;0.00;0.00;;;;;21.00;100356.00;;;;4871803;29;20105;-80
2022/03/03 02:15:55;;;;;;;0.00;0.00;;;;;21.00;100367.00;;;;4869197;29;20045;-78
2022/03/03 02:18:25;;;;;;;0.00;0.00;;;;;21.00;100375.00;;;;4868828;29;20088;-80
2022/03/03 02:20:54;;;;;;;0.00;0.00;;;;;20.90;100351.00;;;;4870096;29;20053;-80
2022/03/03 02:23:24;;;;;;;0.00;0.00;;;;;20.80;100358.00;;;;4872607;29;20048;-78
2022/03/03 02:25:54;;;;;;;0.00;0.00;;;;;20.80;100372.00;;;;4872165;29;20864;-78
2022/03/03 02:28:24;;;;;;;0.00;0.00;;;;;20.80;100386.00;;;;4873360;29;20049;-80
2022/03/03 02:30:53;;;;;;;0.00;0.00;;;;;20.80;100379.00;;;;4873755;29;20398;-79
2022/03/03 02:33:23;;;;;;;0.00;0.00;;;;;20.70;100377.00;;;;4876557;29;20051;-81
2022/03/03 02:35:52;;;;;;;0.00;0.00;;;;;20.70;100386.00;;;;4875720;29;20045;-78
2022/03/03 02:38:21;;;;;;;0.00;0.00;;;;;20.60;100364.00;;;;4875960;29;20053;-79
2022/03/03 02:40:51;;;;;;;0.00;0.00;;;;;20.60;100374.00;;;;4856169;29;20092;-78
2022/03/03 02:43:21;;;;;;;0.00;0.00;;;;;20.70;100359.00;;;;4874024;29;20045;-81
2022/03/03 02:45:50;;;;;;;0.00;0.00;;;;;20.70;100358.00;;;;4876310;29;20045;-80
2022/03/03 02:48:20;;;;;;;0.00;0.00;;;;;20.60;100367.00;;;;4875353;29;20045;-79
2022/03/03 02:50:50;;;;;;;0.00;0.00;;;;;20.60;100361.00;;;;4876371;29;20440;-79
2022/03/03 02:53:19;;;;;;;0.00;0.00;;;;;20.50;100359.00;;;;4875974;29;20436;-77
2022/03/03 02:55:48;;;;;;;0.00;0.00;;;;;20.50;100380.00;;;;4856435;29;20414;-78
2022/03/03 02:58:19;;;;;;;0.00;0.00;;;;;20.40;100372.00;;;;4873541;29;20041;-80
2022/03/03 03:00:51;;;;;;;0.00;0.00;;;;;20.40;100353.00;;;;4875838;29;20056;-79
2022/03/03 03:03:22;;;;;;;0.00;0.00;;;;;20.50;100360.00;;;;4875851;29;20069;-79
2022/03/03 03:05:52;;;;;;;0.00;0.00;;;;;20.40;100350.00;;;;4876079;29;20045;-79
2022/03/03 03:08:21;;;;;;;0.00;0.00;;;;;20.40;100354.00;;;;4875656;29;20049;-80
2022/03/03 03:10:51;;;;;;;0.00;0.00;;;;;20.40;100352.00;;;;4875377;29;20132;-79
2022/03/03 03:13:21;;;;;;;0.00;0.00;;;;;20.50;100356.00;;;;4876117;29;20462;-80
2022/03/03 03:15:50;;;;;;;0.00;0.00;;;;;20.40;100360.00;;;;4875717;29;20402;-80
2022/03/03 03:18:22;;;;;;;0.00;0.00;;;;;20.40;100345.00;;;;4875408;29;20055;-80
2022/03/03 03:20:53;;;;;;;0.00;0.00;;;;;20.40;100357.00;;;;4875246;29;20052;-80
2022/03/03 03:23:23;;;;;;;0.00;0.00;;;;;20.40;100352.00;;;;4875648;29;20075;-80
2022/03/03 03:25:55;;;;;;;0.00;0.00;;;;;20.40;100368.00;;;;4855735;29;20116;-80
2022/03/03 03:28:25;;;;;;;0.00;0.00;;;;;20.40;100335.00;;;;4874182;29;20045;-80
2022/03/03 03:30:54;;;;;;;0.00;0.00;;;;;20.30;100360.00;;;;4875560;29;20409;-79
2022/03/03 03:33:23;;;;;;;0.00;0.00;;;;;20.30;100345.00;;;;4874931;29;20520;-78
2022/03/03 03:35:53;;;;;;;0.00;0.00;;;;;20.30;100358.00;;;;4875555;29;20453;-80
2022/03/03 03:38:25;;;;;;;0.00;0.00;;;;;20.30;100344.00;;;;4875204;29;20535;-79
2022/03/03 03:40:54;;;;;;;0.00;0.00;;;;;20.30;100363.00;;;;4874307;29;20060;-82
2022/03/03 03:43:24;;;;;;;0.00;0.00;;;;;20.30;100354.00;;;;4874712;29;20057;-80
2022/03/03 03:45:54;;;;;;;0.00;0.00;;;;;20.20;100355.00;;;;4874773;29;20544;-79
2022/03/03 03:48:23;;;;;;;0.00;0.00;;;;;20.20;100349.00;;;;4874941;29;20523;-79
2022/03/03 03:50:53;;;;;;;0.00;0.00;;;;;20.20;100346.00;;;;4875244;29;20552;-80
2022/03/03 03:53:23;;;;;;;0.00;0.00;;;;;20.20;100362.00;;;;4874541;29;20052;-79
2022/03/03 03:55:53;;;;;;;0.00;0.00;;;;;20.20;100341.00;;;;4874883;29;20461;-79
2022/03/03 03:58:22;;;;;;;0.00;0.00;;;;;20.10;100366.00;;;;4875056;29;20045;-79
2022/03/03 04:00:52;;;;;;;0.00;0.00;;;;;20.10;100335.00;;;;4874590;29;20052;-79
2022/03/03 04:03:21;;;;;;;0.00;0.00;;;;;20.00;100338.00;;;;4874613;29;20125;-80
2022/03/03 04:05:51;;;;;;;0.00;0.00;;;;;20.10;100344.00;;;;4874933;29;20060;-80
2022/03/03 04:08:20;;;;;;;0.00;0.00;;;;;20.00;100335.00;;;;4874022;29;20049;-80
2022/03/03 04:10:50;;;;;;;0.00;0.00;;;;;19.90;100345.00;;;;4873563;29;20097;-80
2022/03/03 04:13:21;;;;;;;0.00;0.00;;;;;19.80;100345.00;;;;4873651;29;20041;-80
2022/03/03 04:15:51;;;;;;;0.00;0.00;;;;;19.80;100366.00;;;;4874143;29;20578;-80
2022/03/03 04:18:21;;;;;;;0.00;0.00;;;;;19.90;100344.00;;;;4874358;29;20045;-81
2022/03/03 04:20:50;;;;;;;0.00;0.00;;;;;19.90;100344.00;;;;4874413;29;20056;-80
2022/03/03 04:23:20;;;;;;;0.00;0.00;;;;;19.80;100360.00;;;;4874171;29;20081;-79
2022/03/03 04:25:49;;;;;;;0.00;0.00;;;;;19.80;100362.00;;;;4873759;29;20453;-80
2022/03/03 04:28:19;;;;;;;0.00;0.00;;;;;19.80;100353.00;;;;4874378;29;20045;-80
2022/03/03 04:30:48;;;;;;;0.00;0.00;;;;;19.90;100354.00;;;;4873304;29;20069;-80
2022/03/03 04:33:18;;;;;;;0.00;0.00;;;;;19.90;100360.00;;;;4874078;29;20049;-79
2022/03/03 04:35:52;;;;;;;0.00;0.00;;;;;19.90;100366.00;;;;4873775;29;20057;-80
2022/03/03 04:38:21;;;;;;;0.00;0.00;;;;;19.80;100348.00;;;;4873933;29;20086;-80
2022/03/03 04:40:52;;;;;;;0.00;0.00;;;;;19.70;100348.00;;;;4873242;29;20072;-79
2022/03/03 04:43:24;;;;;;;0.00;0.00;;;;;19.60;100354.00;;;;4873811;29;20049;-80
2022/03/03 04:45:54;;;;;;;0.00;0.00;;;;;19.70;100362.00;;;;4873891;29;20049;-80
2022/03/03 04:48:29;;;;;;;0.00;0.00;;;;;19.70;100363.00;;;;4873524;29;20049;-80
2022/03/03 04:50:58;;;;;;;0.00;0.00;;;;;19.70;100339.00;;;;4873596;29;20048;-80
2022/03/03 04:53:29;;;;;;;0.00;0.00;;;;;19.70;100354.00;;;;4872652;29;20060;-80
2022/03/03 04:55:59;;;;;;;0.00;0.00;;;;;19.70;100357.00;;;;4874170;29;20056;-80
2022/03/03 04:58:28;;;;;;;0.00;0.00;;;;;19.70;100350.00;;;;4873489;29;20519;-79
2022/03/03 05:00:57;;;;;;;0.00;0.00;;;;;19.60;100336.00;;;;4873284;29;20053;-79
2022/03/03 05:03:27;;;;;;;0.00;0.00;;;;;19.50;100319.00;;;;4874364;29;20049;-79
2022/03/03 05:05:56;;;;;;;0.00;0.00;;;;;19.50;100331.00;;;;4873411;29;20065;-79
2022/03/03 05:08:26;;;;;;;0.00;0.00;;;;;19.60;100335.00;;;;4855506;29;20064;-79
2022/03/03 05:10:55;;;;;;;0.00;0.00;;;;;19.50;100347.00;;;;4872778;29;20051;-79
2022/03/03 05:13:24;;;;;;;0.00;0.00;;;;;19.50;100335.00;;;;4873025;29;20057;-81
2022/03/03 05:15:54;;;;;;;0.00;0.00;;;;;19.40;100325.00;;;;4873978;29;20049;-79
2022/03/03 05:18:23;;;;;;;0.00;0.00;;;;;19.40;100318.00;;;;4872742;29;20485;-80
2022/03/03 05:20:53;;;;;;;0.00;0.00;;;;;19.40;100319.00;;;;4873228;29;20049;-79
2022/03/03 05:23:24;;;;;;;0.00;0.00;;;;;19.30;100335.00;;;;4855370;29;20113;-79
2022/03/03 05:25:53;;;;;;;0.00;0.00;;;;;19.30;100341.00;;;;4873393;29;20036;-79
2022/03/03 05:28:23;;;;;;;0.00;0.00;;;;;19.30;100336.00;;;;4873082;29;20397;-79
2022/03/03 05:30:52;;;;;;;0.00;0.00;;;;;19.30;100315.00;;;;4838527;29;20057;-79
2022/03/03 05:33:24;;;;;;;0.00;0.00;;;;;19.30;100323.00;;;;4871997;29;20072;-79
2022/03/03 05:36:00;;;;;;;0.00;0.00;;;;;19.20;100308.00;;;;4872768;29;20041;-79
2022/03/03 05:38:32;;;;;;;0.00;0.00;;;;;19.20;100311.00;;;;4872089;29;20053;-79
2022/03/03 05:41:05;;;;;;;0.00;0.00;;;;;19.20;100331.00;;;;4872873;29;20045;-79
2022/03/03 05:43:36;;;;;;;0.00;0.00;;;;;19.20;100322.00;;;;4872894;29;20045;-79
2022/03/03 05:46:05;;;;;;;0.00;0.00;;;;;19.20;100308.00;;;;4873412;29;20049;-79
2022/03/03 05:48:38;;;;;;;0.00;0.00;;;;;19.00;100306.00;;;;4872975;29;20124;-79
2022/03/03 05:51:10;;;;;;;0.00;0.00;;;;;19.10;100312.00;;;;4872985;29;20048;-80
2022/03/03 05:53:39;;;;;;;0.00;0.00;;;;;19.10;100304.00;;;;4873215;29;20153;-79
2022/03/03 05:56:10;;;;;;;0.00;0.00;;;;;19.10;100331.00;;;;4872854;29;20072;-79
2022/03/03 05:58:45;;;;;;;0.00;0.00;;;;;19.00;100330.00;;;;4872693;29;20057;-79
2022/03/03 06:01:17;;;;;;;0.00;0.00;;;;;19.00;100310.00;;;;4853627;29;20064;-79
2022/03/03 06:03:50;;;;;;;0.00;0.00;;;;;18.90;100310.00;;;;4872278;29;20520;-79
2022/03/03 06:06:25;;;;;;;0.00;0.00;;;;;18.90;100341.00;;;;4857756;29;20046;-79
2022/03/03 06:09:16;;;;;;;0.00;0.00;;;;;19.00;100344.00;;;;4876483;29;20051;-78
2022/03/03 06:12:03;;;;;;;0.00;0.00;;;;;19.10;100323.00;;;;4875819;29;20101;-80
2022/03/03 06:14:47;;;;;;;0.00;0.00;;;;;19.20;100353.00;;;;4859344;29;20140;-79
2022/03/03 06:17:19;;;;;;;0.00;0.00;;;;;19.40;100335.00;;;;4875968;29;20119;-80
2022/03/03 06:19:54;;;;;;;0.00;0.00;;;;;19.50;100323.00;;;;4876263;29;20049;-79
2022/03/03 06:22:23;;;;;;;0.00;0.00;;;;;19.60;100337.00;;;;4876294;29;20109;-80
2022/03/03 06:24:53;;;;;;;0.00;0.00;;;;;19.60;100338.00;;;;4876226;29;20045;-80
2022/03/03 06:27:27;;;;;;;0.00;0.00;;;;;19.60;100344.00;;;;4876203;29;20604;-79
2022/03/03 06:29:57;;;;;;;0.00;0.00;;;;;19.80;100321.00;;;;4876155;29;20045;-79
2022/03/03 06:32:27;;;;;;;0.00;0.00;;;;;19.80;100341.00;;;;4875772;29;20060;-80
2022/03/03 06:34:59;;;;;;;0.00;0.00;;;;;19.90;100349.00;;;;4876006;29;20508;-79
2022/03/03 06:37:29;;;;;;;0.00;0.00;;;;;20.00;100334.00;;;;4875471;29;20061;-80
2022/03/03 06:39:59;;;;;;;0.00;0.00;;;;;20.10;100336.00;;;;4876034;29;20433;-79
2022/03/03 06:42:30;;;;;;;0.00;0.00;;;;;20.10;100314.00;;;;4876109;29;20127;-79
2022/03/03 06:44:59;;;;;;;0.00;0.00;;;;;20.20;100318.00;;;;4875803;29;20053;-80
2022/03/03 06:47:30;;;;;;;0.00;0.00;;;;;20.30;100319.00;;;;4875777;29;20049;-80
2022/03/03 06:50:00;;;;;;;0.00;0.00;;;;;20.40;100311.00;;;;4876160;29;20539;-80
2022/03/03 06:52:33;;;;;;;0.00;0.00;;;;;20.40;100323.00;;;;4875418;29;20045;-79
2022/03/03 06:55:05;;;;;;;0.00;0.00;;;;;20.40;100310.00;;;;4875860;29;20072;-79
2022/03/03 06:57:38;;;;;;;0.00;0.00;;;;;20.40;100335.00;;;;4867673;29;20484;-81
2022/03/03 07:00:09;;;;;;;0.00;0.00;;;;;20.40;100317.00;;;;4875477;29;20509;-81
2022/03/03 07:02:41;;;;;;;0.00;0.00;;;;;20.50;100325.00;;;;4875930;29;20049;-80
2022/03/03 07:05:12;;;;;;;0.00;0.00;;;;;20.50;100319.00;;;;4875296;29;20164;-81
2022/03/03 07:07:46;;;;;;;0.00;0.00;;;;;20.60;100324.00;;;;4875595;29;20056;-80
2022/03/03 07:10:24;;;;;;;0.00;0.00;;;;;20.40;100325.00;;;;4875377;29;20053;-78
2022/03/03 07:12:56;;;;;;;0.00;0.00;;;;;20.50;100300.00;;;;4855125;29;20055;-79
2022/03/03 07:15:27;;;;;;;0.00;0.00;;;;;20.60;100323.00;;;;4874416;29;20068;-82
2022/03/03 07:18:06;;;;;;;0.00;0.00;;;;;20.60;100337.00;;;;4874923;29;20052;-79
2022/03/03 07:20:57;;;;;;;0.00;0.00;;;;;20.60;100330.00;;;;4858053;29;20053;-80
2022/03/03 07:23:38;;;;;;;0.00;0.00;;;;;20.60;100321.00;;;;4875010;29;20044;-78
2022/03/03 07:26:13;;;;;;;0.00;0.00;;;;;20.50;100336.00;;;;4875339;29;20281;-80
2022/03/03 07:28:53;;;;;;;0.00;0.00;;;;;20.60;100336.00;;;;4875692;29;20045;-79
2022/03/03 07:31:24;;;;;;;0.00;0.00;;;;;20.60;100336.00;;;;4875114;29;20048;-78
2022/03/03 07:33:55;;;;;;;0.00;0.00;;;;;20.60;100332.00;;;;4875381;29;20044;-78
2022/03/03 07:36:28;;;;;;;0.00;0.00;;;;;20.70;100338.00;;;;4874978;29;20061;-80
2022/03/03 07:39:00;;;;;;;0.00;0.00;;;;;20.70;100340.00;;;;4874106;29;20049;-78
2022/03/03 07:41:30;;;;;;;0.00;0.00;;;;;20.60;100331.00;;;;4875217;29;20433;-79
2022/03/03 07:44:01;;;;;;;0.00;0.00;;;;;20.60;100343.00;;;;4875293;29;20087;-79
2022/03/03 07:46:31;;;;;;;0.00;0.00;;;;;20.50;100349.00;;;;4874820;29;20136;-79
2022/03/03 07:49:01;;;;;;;0.00;0.00;;;;;20.60;100354.00;;;;4875270;29;20124;-79
2022/03/03 07:51:33;;;;;;;;;;;;;20.60;100352.00;;;;4875375;29;20056;-79
2022/03/03 07:54:06;;;;;;;0.00;0.00;;;;;20.50;100339.00;;;;4855107;29;19928;-80
2022/03/03 07:56:43;;;;;;;0.00;0.00;;;;;20.40;100343.00;;;;4854936;29;20076;-79
2022/03/03 07:59:18;;;;;;;0.00;0.00;;;;;20.40;100331.00;;;;4872839;29;20323;-79
2022/03/03 08:01:49;;;;;;;0.00;0.00;;;;;20.40;100337.00;;;;4874553;29;20953;-80
2022/03/03 08:04:20;;;;;;;0.00;0.00;;;;;20.40;100335.00;;;;4856211;29;20053;-80
2022/03/03 08:06:52;;;;;;;0.00;0.00;;;;;20.40;100338.00;;;;4875053;29;20045;-79
2022/03/03 08:09:24;;;;;;;0.00;0.00;;;;;20.40;100355.00;;;;4874594;29;20053;-79
2022/03/03 08:11:58;;;;;;;0.00;0.00;;;;;20.40;100344.00;;;;4874191;29;20049;-78
2022/03/03 08:14:29;;;;;;;;;;;;;20.40;100373.00;;;;4875267;29;20053;-80
2022/03/03 08:16:59;;;;;;;0.00;0.00;;;;;20.30;100350.00;;;;4874534;29;20421;-80
2022/03/03 08:19:32;;;;;;;0.00;0.00;;;;;20.30;100381.00;;;;4874492;29;20501;-78
2022/03/03 08:22:02;;;;;;;0.00;0.00;;;;;20.20;100354.00;;;;4874368;29;20088;-78
2022/03/03 08:24:42;;;;;;;0.00;0.00;;;;;20.30;100368.00;;;;4874046;29;20433;-80
2022/03/03 08:27:12;;;;;;;0.00;0.00;;;;;20.30;100373.00;;;;4873620;29;20127;-79
2022/03/03 08:29:42;;;;;;;0.00;0.00;;;;;20.20;100383.00;;;;4854720;29;20045;-79
2022/03/03 08:32:16;;;;;;;0.00;0.00;;;;;20.20;100371.00;;;;4871393;29;20049;-78
2022/03/03 08:34:57;;;;;;;0.00;0.00;;;;;20.20;100392.00;;;;4874409;29;20512;-78
2022/03/03 08:37:36;;;;;;;0.00;0.00;;;;;20.20;100366.00;;;;4873739;29;20068;-82
2022/03/03 08:40:09;;;;;;;0.00;0.00;;;;;20.10;100367.00;;;;4854679;29;20069;-79
2022/03/03 08:42:44;;;;;;;0.00;0.00;;;;;20.10;100384.00;;;;4867455;29;20124;-78
2022/03/03 08:45:15;;;;;;;0.00;0.00;;;;;20.10;100364.00;;;;4873536;29;20048;-80
2022/03/03 08:47:54;;;;;;;0.00;0.00;;;;;20.20;100391.00;;;;4873723;29;20049;-79
2022/03/03 08:50:32;;;;;;;0.00;0.00;;;;;20.20;100379.00;;;;4874067;29;20044;-78
2022/03/03 08:53:04;;;;;;;0.00;0.00;;;;;20.10;100388.00;;;;4874443;29;20053;-80
2022/03/03 08:55:37;;;;;;;0.00;0.00;;;;;20.20;100401.00;;;;4854215;29;20057;-77
2022/03/03 08:58:08;;;;;;;0.00;0.00;;;;;20.10;100382.00;;;;4870120;29;20053;-77
2022/03/03 09:00:38;;;;;;;0.00;0.00;;;;;20.10;100377.00;;;;4873467;29;20045;-81
2022/03/03 09:03:08;;;;;;;0.00;0.00;;;;;20.10;100393.00;;;;4873195;29;20093;-81
2022/03/03 09:05:37;;;;;;;0.00;0.00;;;;;20.00;100388.00;;;;4874019;29;20052;-81
2022/03/03 09:08:06;;;;;;;0.00;0.00;;;;;19.90;100380.00;;;;4853337;29;20064;-79
2022/03/03 09:10:36;;;;;;;0.00;0.00;;;;;19.80;100399.00;;;;4865679;29;20045;-80
2022/03/03 09:13:06;;;;;;;0.00;0.00;;;;;19.80;100403.00;;;;4872780;29;20048;-81
2022/03/03 09:15:35;;;;;;;0.00;0.00;;;;;19.90;100414.00;;;;4873850;29;20128;-81
2022/03/03 09:18:07;;;;;;;0.00;0.00;;;;;19.90;100410.00;;;;4873571;29;20041;-80
2022/03/03 09:20:36;;;;;;;0.00;0.00;;;;;19.90;100408.00;;;;4873085;29;20903;-78
2022/03/03 09:23:08;;;;;;;0.00;0.00;;;;;19.80;100403.00;;;;4873430;29;20076;-80
2022/03/03 09:25:39;;;;;;;0.00;0.00;;;;;19.80;100422.00;;;;4872547;29;20048;-79
2022/03/03 09:28:09;;;;;;;0.00;0.00;;;;;19.80;100432.00;;;;4854120;29;20057;-79
2022/03/03 09:30:49;;;;;;;0.00;0.00;;;;;19.80;100408.00;;;;4873184;29;20079;-80
2022/03/03 09:33:19;;;;;;;0.00;0.00;;;;;19.90;100399.00;;;;4873149;29;20131;-79
2022/03/03 09:35:50;;;;;;;0.00;0.00;;;;;19.90;100411.00;;;;4873405;29;20045;-79
2022/03/03 09:38:20;;;;;;;0.00;0.00;;;;;19.80;100434.00;;;;4873112;29;20060;-80
2022/03/03 09:40:50;;;;;;;0.00;0.00;;;;;19.90;100418.00;;;;4872802;29;20049;-81
2022/03/03 09:43:19;;;;;;;0.00;0.00;;;;;20.00;100428.00;;;;4873604;29;20409;-79
2022/03/03 09:45:50;;;;;;;0.00;0.00;;;;;19.90;100435.00;;;;4873318;29;20135;-78
2022/03/03 09:48:22;;;;;;;0.00;0.00;;;;;20.00;100416.00;;;;4872819;29;20057;-79
2022/03/03 09:50:54;;;;;;;0.00;0.00;;;;;20.00;100408.00;;;;4873369;29;20821;-79
2022/03/03 09:53:24;;;;;;;0.00;0.00;;;;;20.10;100420.00;;;;4873330;29;20542;-79
2022/03/03 09:55:53;;;;;;;0.00;0.00;;;;;20.10;100450.00;;;;4872837;29;20051;-79
2022/03/03 09:58:23;;;;;;;0.00;0.00;;;;;20.20;100433.00;;;;4855213;29;20064;-79
2022/03/03 10:00:52;;;;;;;0.00;0.00;;;;;20.10;100429.00;;;;4872935;29;20049;-80
2022/03/03 10:03:22;;;;;;;0.00;0.00;;;;;20.20;100441.00;;;;4872635;29;20056;-79
2022/03/03 10:05:53;;;;;;;0.00;0.00;;;;;20.20;100442.00;;;;4872922;29;20055;-80
2022/03/03 10:08:27;;;;;;;0.00;0.00;;;;;20.40;100437.00;;;;4872720;29;20575;-79
2022/03/03 10:11:02;;;;;;;0.00;0.00;;;;;20.40;100443.00;;;;4872698;29;20041;-80
2022/03/03 10:13:52;;;;;;;0.00;0.00;;;;;20.50;100441.00;;;;4873056;29;20057;-80
2022/03/03 10:16:29;;;;;;;0.00;0.00;;;;;20.50;100432.00;;;;4872705;29;20049;-77
2022/03/03 10:19:03;;;;;;;0.00;0.00;;;;;20.50;100457.00;;;;4872531;29;20053;-79
2022/03/03 10:21:38;;;;;;;0.00;0.00;;;;;20.50;100448.00;;;;4872522;29;20053;-79
2022/03/03 10:24:27;;;;;;;0.00;0.00;;;;;20.70;100452.00;;;;4873288;29;20049;-78
2022/03/03 10:27:05;;;;;;;0.00;0.00;;;;;20.80;100417.00;;;;4872356;29;20424;-79
2022/03/03 10:29:35;;;;;;;0.00;0.00;;;;;20.80;100442.00;;;;4872451;29;20045;-78
2022/03/03 10:32:05;;;;;;;0.00;0.00;;;;;20.90;100457.00;;;;4871427;29;20056;-79
2022/03/03 10:34:38;;;;;;;0.05;0.05;;;;;21.10;100470.00;;;;4846057;29;20057;-79
2022/03/03 10:37:10;;;;;;;0.00;0.00;;;;;21.40;100456.00;;;;4872922;29;20061;-82
2022/03/03 10:39:48;;;;;;;0.00;0.00;;;;;21.50;100471.00;;;;4872963;29;20052;-80
2022/03/03 10:42:20;;;;;;;0.00;0.00;;;;;21.70;100449.00;;;;4861020;29;20565;-79
2022/03/03 10:44:51;;;;;;;0.00;0.00;;;;;21.80;100463.00;;;;4854501;29;20085;-79
2022/03/03 10:47:22;;;;;;;0.00;0.00;;;;;21.80;100463.00;;;;4857197;29;20041;-81
2022/03/03 10:49:54;;;;;;;0.00;0.00;;;;;22.00;100447.00;;;;4856048;29;20056;-81
2022/03/03 10:52:27;;;;;;;0.00;0.00;;;;;21.90;100463.00;;;;4857607;29;20109;-79
2022/03/03 10:55:17;;;;;;;0.00;0.00;;;;;21.80;100465.00;;;;4857929;29;20569;-79
2022/03/03 10:57:58;;;;;;;0.00;0.00;;;;;21.90;100457.00;;;;4857492;29;20052;-80
2022/03/03 11:00:29;;;;;;;;;;;;;22.10;100461.00;;;;4857558;29;20387;-79
2022/03/03 11:03:01;;;;;;;0.00;0.00;;;;;22.40;100451.00;;;;4857456;29;20632;-80
2022/03/03 11:05:32;;;;;;;0.00;0.00;;;;;22.50;100461.00;;;;4857034;29;20462;-80
2022/03/03 11:08:01;;;;;;;0.00;0.00;;;;;23.80;100389.00;;;;4857341;29;20060;-80
2022/03/03 11:10:31;;;;;;;0.00;0.00;;;;;23.40;100469.00;;;;4857329;29;20077;-76
2022/03/03 11:13:02;;;;;;;0.00;0.00;;;;;23.60;100405.00;;;;4857103;29;20080;-78
2022/03/03 11:15:32;;;;;;;0.00;0.00;;;;;28.30;100257.00;;;;4856930;29;20057;-76
2022/03/03 11:18:07;;;;;;;0.00;0.00;;;;;33.20;100296.00;;;;4856992;29;20065;-78
2022/03/03 11:20:37;;;;;;;0.00;0.00;;;;;30.20;100365.00;;;;4838694;29;20102;-79
2022/03/03 11:23:06;;;;;;;0.00;0.00;;;;;27.30;100412.00;;;;4852702;29;20057;-78
2022/03/03 11:25:36;;;;;;;0.00;0.00;;;;;26.50;100444.00;;;;4856237;29;20045;-79
2022/03/03 11:28:15;;;;;;;0.00;0.00;;;;;25.30;100443.00;;;;4836886;29;20479;-79
2022/03/03 11:30:46;;;;;;;0.00;0.00;;;;;26.80;100315.00;;;;4856634;29;20052;-78
2022/03/03 11:33:33;;;;;;;0.00;0.00;;;;;28.30;100309.00;;;;4856864;29;20169;-79
2022/03/03 11:36:07;;;;;;;0.10;0.03;;;;;31.50;100251.00;;;;4856625;29;20810;-82
2022/03/03 11:38:55;;;;;;;0.00;0.00;;;;;31.30;100321.00;;;;4856044;29;20059;-79
2022/03/03 11:41:49;;;;;;;0.00;0.00;;;;;31.70;100359.00;;;;4857242;29;20060;-79
2022/03/03 11:44:31;;;;;;;0.00;0.00;;;;;30.00;100363.00;;;;4857294;29;20123;-79
2022/03/03 11:47:23;;;;;;;0.00;0.00;;;;;32.30;100292.00;;;;4856687;29;20090;-79
2022/03/03 11:50:16;;;;;;;0.00;0.00;;;;;28.70;100415.00;;;;4856692;29;20517;-79
2022/03/03 11:53:06;;;;;;;0.15;0.15;;;;;29.80;100389.00;;;;4856360;29;20543;-80
2022/03/03 11:55:41;;;;;;;0.00;0.00;;;;;28.40;100436.00;;;;4844280;29;20437;-81
2022/03/03 11:58:26;;;;;;;0.00;0.00;;;;;27.60;100432.00;;;;4836851;29;20050;-79
2022/03/03 12:00:59;;;;;;;0.00;0.00;;;;;29.90;100407.00;;;;4856453;29;20060;-78
2022/03/03 12:03:29;;;;;;;0.30;0.10;;;;;33.10;100334.00;;;;4854719;29;20061;-78
2022/03/03 12:06:08;;;;;;;0.00;0.00;;;;;33.60;100331.00;;;;4856243;29;20053;-78
2022/03/03 12:08:42;;;;;;;0.10;0.05;;;;;34.50;100330.00;;;;4856432;29;20045;-78
2022/03/03 12:11:16;;;;;;;0.35;0.25;;;;;34.60;100342.00;;;;4856500;29;20426;-80
2022/03/03 12:13:47;;;;;;;0.00;0.00;;;;;34.70;100324.00;;;;4855563;29;20046;-81
2022/03/03 12:16:26;;;;;;;0.00;0.00;;;;;34.90;100338.00;;;;4855779;29;20490;-76
2022/03/03 12:18:55;;;;;;;0.00;0.00;;;;;33.70;100343.00;;;;4855775;29;20046;-77
2022/03/03 12:21:44;;;;;;;0.00;0.00;;;;;34.00;100345.00;;;;4855432;29;20093;-79
2022/03/03 12:24:14;;;;;;;0.10;0.10;;;;;34.10;100353.00;;;;4855899;29;20619;-80
2022/03/03 12:26:55;;;;;;;0.10;0.10;;;;;34.10;100403.00;;;;4855842;29;20038;-78
2022/03/03 12:29:38;;;;;;;0.00;0.00;;;;;33.70;100425.00;;;;4856145;29;20060;-81
2022/03/03 12:32:42;;;;;;;0.00;0.00;;;;;32.70;100425.00;;;;4855481;29;20049;-77